sensor_id;sensor_type;location;lat;lon;timestamp;temperature;humidity
14415;DHT22;7307;50.852;4.314;2022-08-03T00:01:28;27.20;53.40
14415;DHT22;7307;50.852;4.314;2022-08-03T00:03:54;27.20;53.40
14415;DHT22;7307;50.852;4.314;2022-08-03T00:06:20;27.20;53.40
14415;DHT22;7307;50.852;4.314;2022-08-03T00:08:45;27.20;53.40
14415;DHT22;7307;50.852;4.314;2022-08-03T00:11:11;27.20;53.40
14415;DHT22;7307;50.852;4.314;2022-08-03T00:13:37;27.20;53.40
14415;DHT22;7307;50.852;4.314;2022-08-03T00:16:03;27.20;53.40
14415;DHT22;7307;50.852;4.314;2022-08-03T00:18:29;27.20;53.40
14415;DHT22;7307;50.852;4.314;2022-08-03T00:20:57;27.20;53.40
14415;DHT22;7307;50.852;4.314;2022-08-03T00:23:23;27.10;53.30
14415;DHT22;7307;50.852;4.314;2022-08-03T00:25:49;27.10;53.40
14415;DHT22;7307;50.852;4.314;2022-08-03T00:28:14;27.10;53.70
14415;DHT22;7307;50.852;4.314;2022-08-03T00:30:40;27.10;53.70
14415;DHT22;7307;50.852;4.314;2022-08-03T00:33:06;27.10;53.50
14415;DHT22;7307;50.852;4.314;2022-08-03T00:35:32;27.10;53.40
14415;DHT22;7307;50.852;4.314;2022-08-03T00:37:57;27.10;53.40
14415;DHT22;7307;50.852;4.314;2022-08-03T00:40:23;27.10;53.40
14415;DHT22;7307;50.852;4.314;2022-08-03T00:45:21;27.10;54.00
14415;DHT22;7307;50.852;4.314;2022-08-03T00:47:47;27.10;53.50
14415;DHT22;7307;50.852;4.314;2022-08-03T00:50:13;27.10;53.50
14415;DHT22;7307;50.852;4.314;2022-08-03T00:52:39;27.10;53.50
14415;DHT22;7307;50.852;4.314;2022-08-03T00:55:05;27.10;53.50
14415;DHT22;7307;50.852;4.314;2022-08-03T00:57:31;27.00;53.50
14415;DHT22;7307;50.852;4.314;2022-08-03T01:00:00;27.00;53.50
14415;DHT22;7307;50.852;4.314;2022-08-03T01:02:27;27.00;53.60
14415;DHT22;7307;50.852;4.314;2022-08-03T01:04:53;27.00;53.60
14415;DHT22;7307;50.852;4.314;2022-08-03T01:10:01;27.00;53.60
14415;DHT22;7307;50.852;4.314;2022-08-03T01:13:03;27.00;53.70
14415;DHT22;7307;50.852;4.314;2022-08-03T01:15:42;27.00;53.80
14415;DHT22;7307;50.852;4.314;2022-08-03T01:20:57;27.00;53.90
14415;DHT22;7307;50.852;4.314;2022-08-03T01:23:53;26.90;53.90
14415;DHT22;7307;50.852;4.314;2022-08-03T01:26:40;26.90;53.90
14415;DHT22;7307;50.852;4.314;2022-08-03T01:32:07;26.90;54.00
14415;DHT22;7307;50.852;4.314;2022-08-03T01:34:37;26.90;54.00
14415;DHT22;7307;50.852;4.314;2022-08-03T01:37:06;26.90;54.00
14415;DHT22;7307;50.852;4.314;2022-08-03T01:39:36;26.90;54.10
14415;DHT22;7307;50.852;4.314;2022-08-03T01:42:05;26.90;54.00
14415;DHT22;7307;50.852;4.314;2022-08-03T01:44:39;26.90;54.10
14415;DHT22;7307;50.852;4.314;2022-08-03T01:47:06;26.90;54.20
14415;DHT22;7307;50.852;4.314;2022-08-03T01:49:37;26.80;54.10
14415;DHT22;7307;50.852;4.314;2022-08-03T01:52:04;26.90;54.20
14415;DHT22;7307;50.852;4.314;2022-08-03T01:54:35;26.80;54.10
14415;DHT22;7307;50.852;4.314;2022-08-03T01:57:02;26.80;54.10
14415;DHT22;7307;50.852;4.314;2022-08-03T01:59:29;26.80;54.10
14415;DHT22;7307;50.852;4.314;2022-08-03T02:01:57;26.80;54.10
14415;DHT22;7307;50.852;4.314;2022-08-03T02:04:25;26.80;54.20
14415;DHT22;7307;50.852;4.314;2022-08-03T02:06:52;26.80;54.30
14415;DHT22;7307;50.852;4.314;2022-08-03T02:09:19;26.80;54.30
14415;DHT22;7307;50.852;4.314;2022-08-03T02:11:46;26.80;54.30
14415;DHT22;7307;50.852;4.314;2022-08-03T02:14:13;26.80;54.30
14415;DHT22;7307;50.852;4.314;2022-08-03T02:16:41;26.80;54.40
14415;DHT22;7307;50.852;4.314;2022-08-03T02:19:08;26.80;54.50
14415;DHT22;7307;50.852;4.314;2022-08-03T02:21:36;26.80;54.40
14415;DHT22;7307;50.852;4.314;2022-08-03T02:24:03;26.80;54.50
14415;DHT22;7307;50.852;4.314;2022-08-03T02:26:30;26.80;54.50
14415;DHT22;7307;50.852;4.314;2022-08-03T02:29:00;26.70;54.40
14415;DHT22;7307;50.852;4.314;2022-08-03T02:31:30;26.80;54.50
14415;DHT22;7307;50.852;4.314;2022-08-03T02:34:03;26.70;54.40
14415;DHT22;7307;50.852;4.314;2022-08-03T02:36:35;26.70;54.40
14415;DHT22;7307;50.852;4.314;2022-08-03T02:39:02;26.70;54.40
14415;DHT22;7307;50.852;4.314;2022-08-03T02:41:37;26.70;54.50
14415;DHT22;7307;50.852;4.314;2022-08-03T02:44:10;26.70;54.50
14415;DHT22;7307;50.852;4.314;2022-08-03T02:46:43;26.70;54.50
14415;DHT22;7307;50.852;4.314;2022-08-03T02:49:11;26.70;54.50
14415;DHT22;7307;50.852;4.314;2022-08-03T02:51:38;26.70;54.60
14415;DHT22;7307;50.852;4.314;2022-08-03T02:54:05;26.70;54.60
14415;DHT22;7307;50.852;4.314;2022-08-03T02:56:33;26.70;54.70
14415;DHT22;7307;50.852;4.314;2022-08-03T02:59:01;26.70;54.70
14415;DHT22;7307;50.852;4.314;2022-08-03T03:01:28;26.60;54.50
14415;DHT22;7307;50.852;4.314;2022-08-03T03:03:56;26.60;54.50
14415;DHT22;7307;50.852;4.314;2022-08-03T03:06:24;26.70;54.60
14415;DHT22;7307;50.852;4.314;2022-08-03T03:08:51;26.60;54.50
14415;DHT22;7307;50.852;4.314;2022-08-03T03:11:20;26.60;54.50
14415;DHT22;7307;50.852;4.314;2022-08-03T03:13:48;26.60;54.50
14415;DHT22;7307;50.852;4.314;2022-08-03T03:16:14;26.60;54.50
14415;DHT22;7307;50.852;4.314;2022-08-03T03:18:42;26.60;54.50
14415;DHT22;7307;50.852;4.314;2022-08-03T03:21:09;26.60;55.10
14415;DHT22;7307;50.852;4.314;2022-08-03T03:23:39;26.60;54.40
14415;DHT22;7307;50.852;4.314;2022-08-03T03:26:06;26.60;54.50
14415;DHT22;7307;50.852;4.314;2022-08-03T03:28:32;26.60;54.50
14415;DHT22;7307;50.852;4.314;2022-08-03T03:30:58;26.50;54.40
14415;DHT22;7307;50.852;4.314;2022-08-03T03:33:25;26.50;54.50
14415;DHT22;7307;50.852;4.314;2022-08-03T03:35:51;26.50;54.50
14415;DHT22;7307;50.852;4.314;2022-08-03T03:38:18;26.50;54.50
14415;DHT22;7307;50.852;4.314;2022-08-03T03:40:44;26.50;54.50
14415;DHT22;7307;50.852;4.314;2022-08-03T03:43:11;26.50;54.50
14415;DHT22;7307;50.852;4.314;2022-08-03T03:45:37;26.50;54.50
14415;DHT22;7307;50.852;4.314;2022-08-03T03:48:05;26.50;54.50
14415;DHT22;7307;50.852;4.314;2022-08-03T03:50:32;26.50;54.50
14415;DHT22;7307;50.852;4.314;2022-08-03T03:52:58;26.50;54.60
14415;DHT22;7307;50.852;4.314;2022-08-03T03:55:24;26.50;54.60
14415;DHT22;7307;50.852;4.314;2022-08-03T03:57:49;26.40;54.50
14415;DHT22;7307;50.852;4.314;2022-08-03T04:00:17;26.40;54.50
14415;DHT22;7307;50.852;4.314;2022-08-03T04:02:43;26.40;54.60
14415;DHT22;7307;50.852;4.314;2022-08-03T04:05:10;26.50;54.60
14415;DHT22;7307;50.852;4.314;2022-08-03T04:08:04;26.40;54.60
14415;DHT22;7307;50.852;4.314;2022-08-03T04:13:43;26.40;54.70
14415;DHT22;7307;50.852;4.314;2022-08-03T04:16:14;26.40;54.70
14415;DHT22;7307;50.852;4.314;2022-08-03T04:18:45;26.30;54.60
14415;DHT22;7307;50.852;4.314;2022-08-03T04:21:14;26.40;54.70
14415;DHT22;7307;50.852;4.314;2022-08-03T04:23:46;26.30;54.70
14415;DHT22;7307;50.852;4.314;2022-08-03T04:26:15;26.40;54.80
14415;DHT22;7307;50.852;4.314;2022-08-03T04:28:44;26.30;54.70
14415;DHT22;7307;50.852;4.314;2022-08-03T04:31:12;26.30;54.80
14415;DHT22;7307;50.852;4.314;2022-08-03T04:33:39;26.30;54.80
14415;DHT22;7307;50.852;4.314;2022-08-03T04:36:08;26.30;54.80
14415;DHT22;7307;50.852;4.314;2022-08-03T04:39:03;26.30;54.90
14415;DHT22;7307;50.852;4.314;2022-08-03T04:41:30;26.30;55.50
14415;DHT22;7307;50.852;4.314;2022-08-03T04:43:58;26.30;54.90
14415;DHT22;7307;50.852;4.314;2022-08-03T04:46:33;26.30;54.90
14415;DHT22;7307;50.852;4.314;2022-08-03T04:49:00;26.30;55.00
14415;DHT22;7307;50.852;4.314;2022-08-03T04:51:26;26.30;55.00
14415;DHT22;7307;50.852;4.314;2022-08-03T04:53:52;26.20;55.00
14415;DHT22;7307;50.852;4.314;2022-08-03T04:56:18;26.30;55.10
14415;DHT22;7307;50.852;4.314;2022-08-03T04:58:44;26.30;55.10
14415;DHT22;7307;50.852;4.314;2022-08-03T05:01:09;26.20;55.10
14415;DHT22;7307;50.852;4.314;2022-08-03T05:03:35;26.20;55.10
14415;DHT22;7307;50.852;4.314;2022-08-03T05:06:01;26.20;55.10
14415;DHT22;7307;50.852;4.314;2022-08-03T05:08:27;26.20;55.20
14415;DHT22;7307;50.852;4.314;2022-08-03T05:10:54;26.20;55.20
14415;DHT22;7307;50.852;4.314;2022-08-03T05:13:19;26.20;55.20
14415;DHT22;7307;50.852;4.314;2022-08-03T05:15:45;26.20;55.20
14415;DHT22;7307;50.852;4.314;2022-08-03T05:18:11;26.20;55.20
14415;DHT22;7307;50.852;4.314;2022-08-03T05:20:36;26.20;55.20
14415;DHT22;7307;50.852;4.314;2022-08-03T05:23:02;26.20;55.20
14415;DHT22;7307;50.852;4.314;2022-08-03T05:25:28;26.20;55.30
14415;DHT22;7307;50.852;4.314;2022-08-03T05:27:54;26.10;55.30
14415;DHT22;7307;50.852;4.314;2022-08-03T05:30:19;26.10;55.40
14415;DHT22;7307;50.852;4.314;2022-08-03T05:32:45;26.10;55.50
14415;DHT22;7307;50.852;4.314;2022-08-03T05:35:11;26.10;55.50
14415;DHT22;7307;50.852;4.314;2022-08-03T05:37:37;26.10;56.30
14415;DHT22;7307;50.852;4.314;2022-08-03T05:40:03;26.10;56.10
14415;DHT22;7307;50.852;4.314;2022-08-03T05:42:29;26.10;56.10
14415;DHT22;7307;50.852;4.314;2022-08-03T05:44:55;26.10;56.10
14415;DHT22;7307;50.852;4.314;2022-08-03T05:47:21;26.10;56.10
14415;DHT22;7307;50.852;4.314;2022-08-03T05:49:46;26.20;56.70
14415;DHT22;7307;50.852;4.314;2022-08-03T05:52:12;26.10;56.70
14415;DHT22;7307;50.852;4.314;2022-08-03T05:54:38;26.10;56.70
14415;DHT22;7307;50.852;4.314;2022-08-03T05:57:04;26.10;56.60
14415;DHT22;7307;50.852;4.314;2022-08-03T05:59:29;26.10;56.40
14415;DHT22;7307;50.852;4.314;2022-08-03T06:01:55;26.10;56.30
14415;DHT22;7307;50.852;4.314;2022-08-03T06:04:21;26.10;56.30
14415;DHT22;7307;50.852;4.314;2022-08-03T06:06:47;26.10;56.20
14415;DHT22;7307;50.852;4.314;2022-08-03T06:09:13;26.10;56.10
14415;DHT22;7307;50.852;4.314;2022-08-03T06:11:39;26.20;56.20
14415;DHT22;7307;50.852;4.314;2022-08-03T06:14:06;26.20;56.20
14415;DHT22;7307;50.852;4.314;2022-08-03T06:16:32;26.20;56.30
14415;DHT22;7307;50.852;4.314;2022-08-03T06:18:58;26.20;56.30
14415;DHT22;7307;50.852;4.314;2022-08-03T06:21:23;26.30;56.20
14415;DHT22;7307;50.852;4.314;2022-08-03T06:23:49;26.30;56.30
14415;DHT22;7307;50.852;4.314;2022-08-03T06:26:15;26.30;56.40
14415;DHT22;7307;50.852;4.314;2022-08-03T06:28:40;26.30;56.40
14415;DHT22;7307;50.852;4.314;2022-08-03T06:31:08;26.40;56.40
14415;DHT22;7307;50.852;4.314;2022-08-03T06:33:34;26.30;56.30
14415;DHT22;7307;50.852;4.314;2022-08-03T06:35:59;26.40;56.40
14415;DHT22;7307;50.852;4.314;2022-08-03T06:38:25;26.40;56.40
14415;DHT22;7307;50.852;4.314;2022-08-03T06:40:50;26.40;56.40
14415;DHT22;7307;50.852;4.314;2022-08-03T06:43:16;26.50;56.40
14415;DHT22;7307;50.852;4.314;2022-08-03T06:45:42;26.40;56.40
14415;DHT22;7307;50.852;4.314;2022-08-03T06:48:09;26.50;56.50
14415;DHT22;7307;50.852;4.314;2022-08-03T06:50:36;26.50;56.60
14415;DHT22;7307;50.852;4.314;2022-08-03T06:53:03;26.50;56.40
14415;DHT22;7307;50.852;4.314;2022-08-03T06:55:30;26.50;56.40
14415;DHT22;7307;50.852;4.314;2022-08-03T06:57:56;26.50;56.30
14415;DHT22;7307;50.852;4.314;2022-08-03T07:00:22;26.50;56.00
14415;DHT22;7307;50.852;4.314;2022-08-03T07:02:47;26.50;55.90
14415;DHT22;7307;50.852;4.314;2022-08-03T07:05:13;26.60;55.80
14415;DHT22;7307;50.852;4.314;2022-08-03T07:07:39;26.60;55.70
14415;DHT22;7307;50.852;4.314;2022-08-03T07:10:06;26.60;55.60
14415;DHT22;7307;50.852;4.314;2022-08-03T07:12:32;26.60;55.50
14415;DHT22;7307;50.852;4.314;2022-08-03T07:14:59;26.60;55.50
14415;DHT22;7307;50.852;4.314;2022-08-03T07:17:25;26.70;55.60
14415;DHT22;7307;50.852;4.314;2022-08-03T07:19:51;26.70;55.50
14415;DHT22;7307;50.852;4.314;2022-08-03T07:22:17;26.70;55.50
14415;DHT22;7307;50.852;4.314;2022-08-03T07:24:42;26.70;55.40
14415;DHT22;7307;50.852;4.314;2022-08-03T07:27:08;26.70;55.40
14415;DHT22;7307;50.852;4.314;2022-08-03T07:29:35;26.70;55.40
14415;DHT22;7307;50.852;4.314;2022-08-03T07:32:02;26.70;55.40
14415;DHT22;7307;50.852;4.314;2022-08-03T07:34:28;26.70;55.30
14415;DHT22;7307;50.852;4.314;2022-08-03T07:36:53;26.80;55.40
14415;DHT22;7307;50.852;4.314;2022-08-03T07:39:19;26.80;55.40
14415;DHT22;7307;50.852;4.314;2022-08-03T07:41:45;26.80;55.30
14415;DHT22;7307;50.852;4.314;2022-08-03T07:44:11;26.80;55.30
14415;DHT22;7307;50.852;4.314;2022-08-03T07:46:36;26.80;55.30
14415;DHT22;7307;50.852;4.314;2022-08-03T07:49:02;26.80;55.30
14415;DHT22;7307;50.852;4.314;2022-08-03T07:51:28;26.80;55.30
14415;DHT22;7307;50.852;4.314;2022-08-03T07:53:53;26.80;55.30
14415;DHT22;7307;50.852;4.314;2022-08-03T07:56:22;26.90;55.30
14415;DHT22;7307;50.852;4.314;2022-08-03T07:58:49;26.80;55.60
14415;DHT22;7307;50.852;4.314;2022-08-03T08:01:15;26.80;56.70
14415;DHT22;7307;50.852;4.314;2022-08-03T08:03:41;26.90;56.40
14415;DHT22;7307;50.852;4.314;2022-08-03T08:06:07;26.90;56.10
14415;DHT22;7307;50.852;4.314;2022-08-03T08:08:33;26.90;56.20
14415;DHT22;7307;50.852;4.314;2022-08-03T08:10:59;26.90;56.20
14415;DHT22;7307;50.852;4.314;2022-08-03T08:13:24;26.90;56.40
14415;DHT22;7307;50.852;4.314;2022-08-03T08:15:50;26.90;56.60
14415;DHT22;7307;50.852;4.314;2022-08-03T08:18:17;26.90;56.40
14415;DHT22;7307;50.852;4.314;2022-08-03T08:20:42;27.00;56.20
14415;DHT22;7307;50.852;4.314;2022-08-03T08:23:08;27.00;56.00
14415;DHT22;7307;50.852;4.314;2022-08-03T08:25:34;27.00;55.80
14415;DHT22;7307;50.852;4.314;2022-08-03T08:27:59;27.00;55.70
14415;DHT22;7307;50.852;4.314;2022-08-03T08:30:29;27.00;55.70
14415;DHT22;7307;50.852;4.314;2022-08-03T08:32:55;27.00;55.70
14415;DHT22;7307;50.852;4.314;2022-08-03T08:35:22;27.00;55.70
14415;DHT22;7307;50.852;4.314;2022-08-03T08:37:48;27.00;55.70
14415;DHT22;7307;50.852;4.314;2022-08-03T08:40:13;27.00;55.70
14415;DHT22;7307;50.852;4.314;2022-08-03T08:42:42;27.10;55.80
14415;DHT22;7307;50.852;4.314;2022-08-03T08:45:09;27.10;55.70
14415;DHT22;7307;50.852;4.314;2022-08-03T08:47:40;27.10;55.70
14415;DHT22;7307;50.852;4.314;2022-08-03T08:50:08;27.10;55.70
14415;DHT22;7307;50.852;4.314;2022-08-03T08:52:34;27.10;55.70
14415;DHT22;7307;50.852;4.314;2022-08-03T08:55:05;27.10;55.60
14415;DHT22;7307;50.852;4.314;2022-08-03T09:00:04;27.10;55.60
14415;DHT22;7307;50.852;4.314;2022-08-03T09:02:30;27.10;55.60
14415;DHT22;7307;50.852;4.314;2022-08-03T09:04:57;27.10;55.60
14415;DHT22;7307;50.852;4.314;2022-08-03T09:07:23;27.10;55.60
14415;DHT22;7307;50.852;4.314;2022-08-03T09:09:48;27.10;55.60
14415;DHT22;7307;50.852;4.314;2022-08-03T09:12:14;27.20;55.60
14415;DHT22;7307;50.852;4.314;2022-08-03T09:14:40;27.20;55.60
14415;DHT22;7307;50.852;4.314;2022-08-03T09:17:06;27.20;55.60
14415;DHT22;7307;50.852;4.314;2022-08-03T09:19:33;27.20;55.60
14415;DHT22;7307;50.852;4.314;2022-08-03T09:22:12;27.20;55.60
14415;DHT22;7307;50.852;4.314;2022-08-03T09:24:54;27.20;55.70
14415;DHT22;7307;50.852;4.314;2022-08-03T09:27:20;27.20;55.70
14415;DHT22;7307;50.852;4.314;2022-08-03T09:29:48;27.20;55.70
14415;DHT22;7307;50.852;4.314;2022-08-03T09:32:14;27.20;55.70
14415;DHT22;7307;50.852;4.314;2022-08-03T09:34:39;27.20;55.60
14415;DHT22;7307;50.852;4.314;2022-08-03T09:37:15;27.30;55.70
14415;DHT22;7307;50.852;4.314;2022-08-03T09:39:41;27.30;55.70
14415;DHT22;7307;50.852;4.314;2022-08-03T09:42:15;27.30;55.60
14415;DHT22;7307;50.852;4.314;2022-08-03T09:44:42;27.30;55.60
14415;DHT22;7307;50.852;4.314;2022-08-03T09:47:09;27.30;55.60
14415;DHT22;7307;50.852;4.314;2022-08-03T09:49:39;27.30;55.60
14415;DHT22;7307;50.852;4.314;2022-08-03T09:52:16;27.30;55.50
14415;DHT22;7307;50.852;4.314;2022-08-03T09:54:53;27.30;55.50
14415;DHT22;7307;50.852;4.314;2022-08-03T09:57:23;27.30;55.50
14415;DHT22;7307;50.852;4.314;2022-08-03T09:59:50;27.40;55.60
14415;DHT22;7307;50.852;4.314;2022-08-03T10:02:24;27.40;55.60
14415;DHT22;7307;50.852;4.314;2022-08-03T10:04:51;27.40;55.50
14415;DHT22;7307;50.852;4.314;2022-08-03T10:07:19;27.40;55.50
14415;DHT22;7307;50.852;4.314;2022-08-03T10:09:56;27.40;55.50
14415;DHT22;7307;50.852;4.314;2022-08-03T10:12:23;27.40;56.10
14415;DHT22;7307;50.852;4.314;2022-08-03T10:14:49;27.40;55.50
14415;DHT22;7307;50.852;4.314;2022-08-03T10:17:15;27.40;55.40
14415;DHT22;7307;50.852;4.314;2022-08-03T10:19:41;27.40;55.40
14415;DHT22;7307;50.852;4.314;2022-08-03T10:22:15;27.40;55.40
14415;DHT22;7307;50.852;4.314;2022-08-03T10:24:55;27.40;55.40
14415;DHT22;7307;50.852;4.314;2022-08-03T10:27:25;27.40;55.40
14415;DHT22;7307;50.852;4.314;2022-08-03T10:29:52;27.40;55.30
14415;DHT22;7307;50.852;4.314;2022-08-03T10:32:39;27.50;55.40
14415;DHT22;7307;50.852;4.314;2022-08-03T10:35:07;27.50;55.40
14415;DHT22;7307;50.852;4.314;2022-08-03T10:40:21;27.50;55.30
14415;DHT22;7307;50.852;4.314;2022-08-03T10:42:50;27.50;55.30
14415;DHT22;7307;50.852;4.314;2022-08-03T10:45:19;27.50;55.30
14415;DHT22;7307;50.852;4.314;2022-08-03T10:47:47;27.50;55.30
14415;DHT22;7307;50.852;4.314;2022-08-03T10:50:13;27.50;55.30
14415;DHT22;7307;50.852;4.314;2022-08-03T10:53:04;27.50;55.20
14415;DHT22;7307;50.852;4.314;2022-08-03T10:55:40;27.50;55.20
14415;DHT22;7307;50.852;4.314;2022-08-03T11:01:09;27.50;55.20
14415;DHT22;7307;50.852;4.314;2022-08-03T11:06:24;27.50;55.10
14415;DHT22;7307;50.852;4.314;2022-08-03T11:09:14;27.50;55.10
14415;DHT22;7307;50.852;4.314;2022-08-03T11:11:41;27.60;55.20
14415;DHT22;7307;50.852;4.314;2022-08-03T11:14:13;27.60;55.20
14415;DHT22;7307;50.852;4.314;2022-08-03T11:16:47;27.60;55.20
14415;DHT22;7307;50.852;4.314;2022-08-03T11:19:18;27.60;55.20
14415;DHT22;7307;50.852;4.314;2022-08-03T11:27:15;27.60;55.10
14415;DHT22;7307;50.852;4.314;2022-08-03T11:30:06;27.60;55.10
14415;DHT22;7307;50.852;4.314;2022-08-03T11:40:48;27.60;55.10
14415;DHT22;7307;50.852;4.314;2022-08-03T11:46:08;27.60;55.00
14415;DHT22;7307;50.852;4.314;2022-08-03T11:48:39;27.60;55.00
14415;DHT22;7307;50.852;4.314;2022-08-03T11:51:24;27.60;55.10
14415;DHT22;7307;50.852;4.314;2022-08-03T11:53:57;27.60;55.00
14415;DHT22;7307;50.852;4.314;2022-08-03T11:56:24;27.60;55.00
14415;DHT22;7307;50.852;4.314;2022-08-03T11:58:55;27.60;55.00
14415;DHT22;7307;50.852;4.314;2022-08-03T12:01:22;27.60;55.60
14415;DHT22;7307;50.852;4.314;2022-08-03T12:03:48;27.60;55.00
14415;DHT22;7307;50.852;4.314;2022-08-03T12:06:15;27.60;55.00
14415;DHT22;7307;50.852;4.314;2022-08-03T12:08:44;27.60;55.00
14415;DHT22;7307;50.852;4.314;2022-08-03T12:11:13;27.60;55.00
14415;DHT22;7307;50.852;4.314;2022-08-03T12:13:41;27.60;54.90
14415;DHT22;7307;50.852;4.314;2022-08-03T12:16:08;27.60;55.00
14415;DHT22;7307;50.852;4.314;2022-08-03T12:18:34;27.70;55.00
14415;DHT22;7307;50.852;4.314;2022-08-03T12:21:11;27.70;55.00
14415;DHT22;7307;50.852;4.314;2022-08-03T12:23:37;27.70;55.00
14415;DHT22;7307;50.852;4.314;2022-08-03T12:26:08;27.70;55.00
14415;DHT22;7307;50.852;4.314;2022-08-03T12:28:35;27.70;55.00
14415;DHT22;7307;50.852;4.314;2022-08-03T12:31:03;27.70;54.90
14415;DHT22;7307;50.852;4.314;2022-08-03T12:33:30;27.70;54.90
14415;DHT22;7307;50.852;4.314;2022-08-03T12:36:11;27.70;54.90
14415;DHT22;7307;50.852;4.314;2022-08-03T12:38:38;27.70;55.00
14415;DHT22;7307;50.852;4.314;2022-08-03T12:41:05;27.70;54.90
14415;DHT22;7307;50.852;4.314;2022-08-03T12:43:31;27.70;54.90
14415;DHT22;7307;50.852;4.314;2022-08-03T12:46:07;27.70;54.90
14415;DHT22;7307;50.852;4.314;2022-08-03T12:48:33;27.70;54.90
14415;DHT22;7307;50.852;4.314;2022-08-03T12:51:08;27.70;54.90
14415;DHT22;7307;50.852;4.314;2022-08-03T12:53:35;27.70;54.90
14415;DHT22;7307;50.852;4.314;2022-08-03T12:56:04;27.70;54.90
14415;DHT22;7307;50.852;4.314;2022-08-03T12:58:34;27.70;54.90
14415;DHT22;7307;50.852;4.314;2022-08-03T13:01:04;27.70;54.90
14415;DHT22;7307;50.852;4.314;2022-08-03T13:03:39;27.70;54.90
14415;DHT22;7307;50.852;4.314;2022-08-03T13:06:11;27.70;54.90
14415;DHT22;7307;50.852;4.314;2022-08-03T13:08:40;27.80;54.90
14415;DHT22;7307;50.852;4.314;2022-08-03T13:11:26;27.70;55.40
14415;DHT22;7307;50.852;4.314;2022-08-03T13:13:53;27.80;54.90
14415;DHT22;7307;50.852;4.314;2022-08-03T13:16:20;27.70;54.80
14415;DHT22;7307;50.852;4.314;2022-08-03T13:18:49;27.70;54.80
14415;DHT22;7307;50.852;4.314;2022-08-03T13:21:18;27.70;54.80
14415;DHT22;7307;50.852;4.314;2022-08-03T13:23:44;27.70;54.80
14415;DHT22;7307;50.852;4.314;2022-08-03T13:26:10;27.70;54.80
14415;DHT22;7307;50.852;4.314;2022-08-03T13:28:39;27.80;54.80
14415;DHT22;7307;50.852;4.314;2022-08-03T13:31:05;27.70;54.80
14415;DHT22;7307;50.852;4.314;2022-08-03T13:33:31;27.80;54.80
14415;DHT22;7307;50.852;4.314;2022-08-03T13:36:02;27.80;54.80
14415;DHT22;7307;50.852;4.314;2022-08-03T13:38:37;27.80;54.80
14415;DHT22;7307;50.852;4.314;2022-08-03T13:41:03;27.80;54.80
14415;DHT22;7307;50.852;4.314;2022-08-03T13:43:30;27.80;54.80
14415;DHT22;7307;50.852;4.314;2022-08-03T13:45:55;27.80;54.80
14415;DHT22;7307;50.852;4.314;2022-08-03T13:48:21;27.80;54.80
14415;DHT22;7307;50.852;4.314;2022-08-03T13:50:47;27.80;54.80
14415;DHT22;7307;50.852;4.314;2022-08-03T13:53:12;27.80;54.80
14415;DHT22;7307;50.852;4.314;2022-08-03T13:55:38;27.80;54.80
14415;DHT22;7307;50.852;4.314;2022-08-03T13:58:03;27.80;54.80
14415;DHT22;7307;50.852;4.314;2022-08-03T14:00:32;27.80;54.80
14415;DHT22;7307;50.852;4.314;2022-08-03T14:03:00;27.80;54.80
14415;DHT22;7307;50.852;4.314;2022-08-03T14:05:26;27.80;54.80
14415;DHT22;7307;50.852;4.314;2022-08-03T14:07:52;27.80;54.80
14415;DHT22;7307;50.852;4.314;2022-08-03T14:10:18;27.80;54.80
14415;DHT22;7307;50.852;4.314;2022-08-03T14:12:44;27.80;54.70
14415;DHT22;7307;50.852;4.314;2022-08-03T14:15:09;27.90;54.90
14415;DHT22;7307;50.852;4.314;2022-08-03T14:17:37;27.80;54.70
14415;DHT22;7307;50.852;4.314;2022-08-03T14:20:03;27.90;54.80
14415;DHT22;7307;50.852;4.314;2022-08-03T14:22:30;27.80;54.70
14415;DHT22;7307;50.852;4.314;2022-08-03T14:24:56;27.90;54.80
14415;DHT22;7307;50.852;4.314;2022-08-03T14:27:22;27.90;54.80
14415;DHT22;7307;50.852;4.314;2022-08-03T14:29:48;27.90;54.80
14415;DHT22;7307;50.852;4.314;2022-08-03T14:32:13;27.90;54.80
14415;DHT22;7307;50.852;4.314;2022-08-03T14:34:39;27.90;54.80
14415;DHT22;7307;50.852;4.314;2022-08-03T14:37:05;27.90;54.80
14415;DHT22;7307;50.852;4.314;2022-08-03T14:39:30;27.90;54.80
14415;DHT22;7307;50.852;4.314;2022-08-03T14:41:56;27.90;54.80
14415;DHT22;7307;50.852;4.314;2022-08-03T14:44:21;27.90;54.70
14415;DHT22;7307;50.852;4.314;2022-08-03T14:46:47;27.90;54.70
14415;DHT22;7307;50.852;4.314;2022-08-03T14:49:12;27.90;54.70
14415;DHT22;7307;50.852;4.314;2022-08-03T14:51:38;27.90;54.70
14415;DHT22;7307;50.852;4.314;2022-08-03T14:54:04;27.90;54.80
14415;DHT22;7307;50.852;4.314;2022-08-03T14:56:30;27.90;54.70
14415;DHT22;7307;50.852;4.314;2022-08-03T14:58:55;27.90;54.70
14415;DHT22;7307;50.852;4.314;2022-08-03T15:01:21;27.90;54.70
14415;DHT22;7307;50.852;4.314;2022-08-03T15:03:46;27.90;54.70
14415;DHT22;7307;50.852;4.314;2022-08-03T15:06:13;27.90;54.70
14415;DHT22;7307;50.852;4.314;2022-08-03T15:08:38;27.90;54.70
14415;DHT22;7307;50.852;4.314;2022-08-03T15:11:04;27.90;54.70
14415;DHT22;7307;50.852;4.314;2022-08-03T15:13:29;28.00;54.70
14415;DHT22;7307;50.852;4.314;2022-08-03T15:15:55;28.00;54.70
14415;DHT22;7307;50.852;4.314;2022-08-03T15:18:22;28.00;54.70
14415;DHT22;7307;50.852;4.314;2022-08-03T15:20:47;28.00;54.70
14415;DHT22;7307;50.852;4.314;2022-08-03T15:23:15;28.00;54.70
14415;DHT22;7307;50.852;4.314;2022-08-03T15:25:42;28.00;54.70
14415;DHT22;7307;50.852;4.314;2022-08-03T15:28:08;28.00;54.70
14415;DHT22;7307;50.852;4.314;2022-08-03T15:30:33;28.00;54.70
14415;DHT22;7307;50.852;4.314;2022-08-03T15:33:01;28.00;55.10
14415;DHT22;7307;50.852;4.314;2022-08-03T15:35:27;28.00;54.90
14415;DHT22;7307;50.852;4.314;2022-08-03T15:37:53;28.00;54.80
14415;DHT22;7307;50.852;4.314;2022-08-03T15:40:19;28.00;54.80
14415;DHT22;7307;50.852;4.314;2022-08-03T15:42:44;28.00;54.90
14415;DHT22;7307;50.852;4.314;2022-08-03T15:45:10;28.00;54.80
14415;DHT22;7307;50.852;4.314;2022-08-03T15:47:36;28.00;54.80
14415;DHT22;7307;50.852;4.314;2022-08-03T15:50:02;28.00;54.90
14415;DHT22;7307;50.852;4.314;2022-08-03T15:52:28;28.00;54.90
14415;DHT22;7307;50.852;4.314;2022-08-03T15:54:53;28.00;55.00
14415;DHT22;7307;50.852;4.314;2022-08-03T15:57:19;28.00;55.10
14415;DHT22;7307;50.852;4.314;2022-08-03T15:59:45;28.00;55.20
14415;DHT22;7307;50.852;4.314;2022-08-03T16:02:10;28.00;55.20
14415;DHT22;7307;50.852;4.314;2022-08-03T16:04:36;28.00;55.20
14415;DHT22;7307;50.852;4.314;2022-08-03T16:07:01;28.00;55.30
14415;DHT22;7307;50.852;4.314;2022-08-03T16:09:27;28.00;55.30
14415;DHT22;7307;50.852;4.314;2022-08-03T16:11:53;28.10;55.40
14415;DHT22;7307;50.852;4.314;2022-08-03T16:14:19;28.10;55.40
14415;DHT22;7307;50.852;4.314;2022-08-03T16:16:44;28.10;55.40
14415;DHT22;7307;50.852;4.314;2022-08-03T16:19:10;28.10;55.40
14415;DHT22;7307;50.852;4.314;2022-08-03T16:21:35;28.10;55.40
14415;DHT22;7307;50.852;4.314;2022-08-03T16:24:01;28.10;55.30
14415;DHT22;7307;50.852;4.314;2022-08-03T16:26:28;28.10;55.30
14415;DHT22;7307;50.852;4.314;2022-08-03T16:28:54;28.10;55.30
14415;DHT22;7307;50.852;4.314;2022-08-03T16:31:21;28.10;55.30